Time;durP1;ratioP1;P1;durP2;ratioP2;P2;SDS_P1;SDS_P2;PMS_P1;PMS_P2;Temp;Humidity;BMP_temperature;BMP_pressure;BME280_temperature;BME280_humidity;BME280_pressure;Samples;Min_cycle;Max_cycle;Signal;HPM_P1;HPM_P2
2022/01/03 00:00:17;;;;;;;6.95;1.20;;;8.60;99.90;;;;;;5024081;28;20551;-85
2022/01/03 00:02:44;;;;;;;14.77;1.23;;;8.50;99.90;;;;;;5028290;28;20088;-86
2022/01/03 00:05:11;;;;;;;9.95;1.40;;;8.60;99.90;;;;;;5025064;28;20481;-86
2022/01/03 00:07:39;;;;;;;7.78;1.50;;;8.60;99.90;;;;;;5023034;28;20485;-86
2022/01/03 00:10:05;;;;;;;11.48;1.85;;;8.60;99.90;;;;;;5028306;28;20054;-86
2022/01/03 00:12:32;;;;;;;10.68;2.30;;;8.70;99.90;;;;;;5024938;28;20064;-85
2022/01/03 00:14:58;;;;;;;9.88;1.67;;;8.70;99.90;;;;;;5026450;28;20044;-85
2022/01/03 00:17:24;;;;;;;10.80;2.63;;;8.70;99.90;;;;;;5025273;28;20151;-85
2022/01/03 00:19:49;;;;;;;9.75;2.08;;;8.70;99.90;;;;;;5024771;28;20056;-85
2022/01/03 00:22:21;;;;;;;7.18;1.90;;;8.80;99.90;;;;;;5026113;28;20163;-85
2022/01/03 00:25:01;;;;;;;9.35;2.20;;;8.80;99.90;;;;;;5029107;28;20045;-86
2022/01/03 00:27:35;;;;;;;9.30;2.47;;;8.90;99.90;;;;;;5028266;28;20046;-86
2022/01/03 00:30:01;;;;;;;;;;;8.90;99.90;;;;;;5028221;28;20484;-86
2022/01/03 00:32:28;;;;;;;14.13;3.08;;;8.90;99.90;;;;;;5029106;28;20376;-86
2022/01/03 00:34:55;;;;;;;7.90;1.50;;;9.00;99.90;;;;;;5025698;28;20421;-85
2022/01/03 00:37:24;;;;;;;13.48;2.22;;;8.90;99.90;;;;;;5028759;28;20071;-85
2022/01/03 00:39:51;;;;;;;14.57;2.28;;;9.00;99.90;;;;;;5029794;28;20052;-86
2022/01/03 00:42:21;;;;;;;13.80;2.33;;;9.00;99.90;;;;;;5026223;28;20044;-86
2022/01/03 00:44:49;;;;;;;14.38;1.98;;;9.00;99.90;;;;;;5024118;28;20051;-85
2022/01/03 00:47:16;;;;;;;10.38;1.80;;;9.10;99.90;;;;;;5024958;28;20095;-85
2022/01/03 00:49:41;;;;;;;14.73;1.83;;;9.10;99.90;;;;;;5029422;28;20163;-86
2022/01/03 00:52:08;;;;;;;14.00;2.75;;;9.10;99.90;;;;;;5027659;28;20133;-86
2022/01/03 00:54:34;;;;;;;18.90;2.20;;;9.10;99.90;;;;;;5028155;28;20057;-87
2022/01/03 00:57:05;;;;;;;19.02;2.15;;;9.10;99.90;;;;;;5024650;28;20096;-86
2022/01/03 00:59:44;;;;;;;15.23;2.30;;;9.10;99.90;;;;;;5025508;28;20512;-85
2022/01/03 01:02:12;;;;;;;15.57;2.90;;;9.10;99.90;;;;;;5027443;28;20058;-86
2022/01/03 01:04:42;;;;;;;15.88;2.45;;;9.10;99.90;;;;;;5027545;28;20056;-86
2022/01/03 01:07:09;;;;;;;13.13;1.77;;;9.10;99.90;;;;;;5026052;28;20057;-86
2022/01/03 01:09:35;;;;;;;16.65;2.42;;;9.10;99.90;;;;;;5024318;28;20136;-86
2022/01/03 01:12:08;;;;;;;13.52;2.05;;;9.10;99.90;;;;;;5020528;28;20041;-85
2022/01/03 01:14:36;;;;;;;17.02;2.30;;;9.10;99.90;;;;;;5035050;28;20045;-86
2022/01/03 01:17:02;;;;;;;19.08;3.13;;;9.10;99.90;;;;;;5030220;28;20049;-85
2022/01/03 01:19:28;;;;;;;17.95;2.70;;;9.00;99.90;;;;;;5028428;28;20073;-86
2022/01/03 01:21:54;;;;;;;26.55;2.88;;;9.10;99.90;;;;;;5026248;28;20045;-86
2022/01/03 01:24:22;;;;;;;14.05;2.35;;;9.00;99.90;;;;;;5026690;28;20136;-86
2022/01/03 01:29:37;;;;;;;15.98;2.65;;;9.00;99.90;;;;;;5040287;28;20042;-86
2022/01/03 01:32:04;;;;;;;17.67;3.05;;;9.20;99.90;;;;;;5027392;28;20045;-86
2022/01/03 01:34:33;;;;;;;20.50;3.22;;;9.00;99.90;;;;;;5026543;28;20068;-86
2022/01/03 01:37:00;;;;;;;22.13;3.10;;;9.00;99.90;;;;;;5022595;28;20121;-86
2022/01/03 01:39:29;;;;;;;19.05;2.70;;;9.10;99.90;;;;;;5027463;28;20041;-86
2022/01/03 01:42:00;;;;;;;15.10;2.92;;;9.00;99.90;;;;;;5029361;28;20056;-87
2022/01/03 01:44:26;;;;;;;17.90;2.33;;;9.00;99.90;;;;;;5026398;28;20045;-86
2022/01/03 01:46:55;;;;;;;19.23;2.92;;;9.00;99.90;;;;;;5025269;28;20470;-86
2022/01/03 01:49:24;;;;;;;22.67;3.47;;;9.00;99.90;;;;;;5024880;28;20050;-86
2022/01/03 01:51:58;;;;;;;18.88;2.72;;;9.00;99.90;;;;;;5027081;28;20501;-86
2022/01/03 01:54:34;;;;;;;18.85;2.72;;;9.10;99.90;;;;;;5028110;28;20045;-86
2022/01/03 01:57:06;;;;;;;17.27;2.20;;;9.10;99.90;;;;;;5027389;28;20124;-86
2022/01/03 01:59:44;;;;;;;18.95;2.28;;;9.10;99.90;;;;;;5025500;28;20049;-86
2022/01/03 02:02:15;;;;;;;16.52;2.70;;;9.10;99.90;;;;;;5025835;28;20053;-86
2022/01/03 02:04:48;;;;;;;13.95;2.15;;;9.10;99.90;;;;;;5017981;28;20037;-86
2022/01/03 02:07:52;;;;;;;18.88;2.65;;;9.10;99.90;;;;;;5026164;28;20106;-85
2022/01/03 02:10:27;;;;;;;17.80;2.67;;;9.20;99.90;;;;;;5026289;28;20493;-86
2022/01/03 02:12:53;;;;;;;18.45;2.88;;;9.60;99.90;;;;;;5023233;28;20401;-86
2022/01/03 02:15:19;;;;;;;16.08;2.85;;;9.20;99.90;;;;;;5023105;28;20045;-86
2022/01/03 02:17:47;;;;;;;20.98;3.28;;;9.60;99.90;;;;;;5023871;28;20120;-86
2022/01/03 02:20:15;;;;;;;21.73;2.92;;;9.20;99.90;;;;;;5024612;28;20521;-86
2022/01/03 02:22:42;;;;;;;19.60;2.60;;;9.30;99.90;;;;;;5028535;28;20045;-86
2022/01/03 02:25:10;;;;;;;18.25;3.30;;;9.40;99.90;;;;;;5028075;28;20059;-86
2022/01/03 02:27:37;;;;;;;22.88;2.92;;;9.20;99.90;;;;;;5027018;28;20116;-85
2022/01/03 02:30:06;;;;;;;19.95;3.78;;;9.30;99.90;;;;;;5024835;28;20087;-86
2022/01/03 02:32:31;;;;;;;19.23;2.67;;;9.30;99.90;;;;;;5026725;28;20370;-86
2022/01/03 02:34:57;;;;;;;13.18;2.63;;;9.30;99.90;;;;;;5025794;28;20099;-86
2022/01/03 02:37:23;;;;;;;20.75;2.97;;;9.30;99.90;;;;;;5024821;28;20037;-86
2022/01/03 02:39:51;;;;;;;17.08;3.08;;;9.30;99.90;;;;;;5025054;28;20481;-86
2022/01/03 02:42:23;;;;;;;21.20;2.38;;;9.30;99.90;;;;;;5020711;28;20048;-86
2022/01/03 02:45:20;;;;;;;19.05;2.97;;;9.30;99.90;;;;;;5023271;28;20077;-86
2022/01/03 02:47:50;;;;;;;17.13;2.83;;;9.20;99.90;;;;;;5020201;28;20053;-86
2022/01/03 02:50:16;;;;;;;20.70;2.92;;;9.20;99.90;;;;;;5027289;28;20762;-86
2022/01/03 02:52:45;;;;;;;16.05;2.35;;;9.20;99.90;;;;;;5026719;28;20089;-86
2022/01/03 02:55:12;;;;;;;19.08;2.40;;;9.20;99.90;;;;;;5026032;28;20048;-86
2022/01/03 02:57:48;;;;;;;20.48;3.25;;;9.20;99.90;;;;;;5022393;28;20132;-86
2022/01/03 03:00:20;;;;;;;19.48;2.65;;;9.20;99.90;;;;;;5024475;28;20068;-86
2022/01/03 03:02:46;;;;;;;24.92;2.95;;;9.20;99.90;;;;;;5023838;28;20041;-86
2022/01/03 03:05:12;;;;;;;16.05;3.08;;;9.20;99.90;;;;;;5022793;28;20139;-86
2022/01/03 03:07:39;;;;;;;28.60;4.35;;;9.20;99.90;;;;;;5037068;28;20089;-86
2022/01/03 03:10:08;;;;;;;22.27;3.55;;;9.20;99.90;;;;;;5023558;28;20040;-86
2022/01/03 03:12:34;;;;;;;17.73;3.53;;;9.20;99.90;;;;;;5021977;28;20768;-86
2022/01/03 03:15:00;;;;;;;23.70;2.90;;;9.20;99.90;;;;;;5023785;28;20103;-86
2022/01/03 03:17:26;;;;;;;19.30;3.10;;;9.20;99.90;;;;;;5025491;28;20037;-86
2022/01/03 03:19:53;;;;;;;19.10;2.85;;;9.20;99.90;;;;;;5025404;28;20428;-86
2022/01/03 03:22:19;;;;;;;20.67;2.65;;;9.20;99.90;;;;;;5026354;28;20052;-86
2022/01/03 03:24:47;;;;;;;16.77;3.15;;;9.20;99.90;;;;;;5026733;28;20049;-86
2022/01/03 03:27:16;;;;;;;17.20;3.15;;;9.20;99.90;;;;;;5027074;28;20091;-87
2022/01/03 03:29:50;;;;;;;25.77;3.47;;;9.20;99.90;;;;;;5038361;28;20505;-86
2022/01/03 03:32:18;;;;;;;24.98;3.70;;;9.10;99.90;;;;;;5024155;28;20053;-86
2022/01/03 03:34:45;;;;;;;14.57;2.92;;;9.10;99.90;;;;;;5026186;28;20069;-86
2022/01/03 03:37:11;;;;;;;19.63;4.05;;;9.10;99.90;;;;;;5027773;28;20390;-86
2022/01/03 03:39:39;;;;;;;19.83;2.90;;;9.00;99.90;;;;;;5029496;28;20076;-86
2022/01/03 03:42:07;;;;;;;20.17;3.92;;;9.00;99.90;;;;;;5027702;28;20041;-86
2022/01/03 03:44:36;;;;;;;19.20;2.92;;;9.00;99.90;;;;;;5027107;28;20094;-86
2022/01/03 03:47:04;;;;;;;22.10;3.13;;;9.00;99.90;;;;;;5030386;28;20037;-86
2022/01/03 03:49:29;;;;;;;20.08;3.10;;;9.00;99.90;;;;;;5030471;28;20050;-86
2022/01/03 03:51:55;;;;;;;23.80;3.47;;;9.00;99.90;;;;;;5029233;28;20203;-86
2022/01/03 03:54:21;;;;;;;19.75;3.63;;;9.00;99.90;;;;;;5025146;28;20042;-86
2022/01/03 03:56:46;;;;;;;16.75;2.55;;;9.10;99.90;;;;;;5028109;28;20494;-86
2022/01/03 03:59:12;;;;;;;26.00;3.28;;;8.90;99.90;;;;;;5030258;28;20052;-86
2022/01/03 04:01:37;;;;;;;20.35;3.00;;;8.90;99.90;;;;;;5029578;28;20061;-86
2022/01/03 04:04:06;;;;;;;22.35;2.78;;;8.90;99.90;;;;;;5026827;28;20057;-86
2022/01/03 04:06:31;;;;;;;23.30;3.33;;;8.90;99.90;;;;;;5026845;28;20456;-86
2022/01/03 04:08:57;;;;;;;19.33;3.10;;;8.90;99.90;;;;;;5028236;28;20077;-87
2022/01/03 04:11:23;;;;;;;23.23;3.88;;;8.90;99.90;;;;;;5026370;28;20088;-86
2022/01/03 04:13:49;;;;;;;13.80;2.55;;;8.90;99.90;;;;;;5029645;28;20053;-86
2022/01/03 04:16:15;;;;;;;16.42;2.78;;;8.90;99.90;;;;;;5028617;28;20041;-86
2022/01/03 04:18:43;;;;;;;26.63;3.15;;;8.90;99.90;;;;;;5027139;28;20061;-86
2022/01/03 04:21:09;;;;;;;16.85;2.70;;;9.00;99.90;;;;;;5029676;28;20052;-85
2022/01/03 04:23:35;;;;;;;21.38;2.80;;;9.00;99.90;;;;;;5029010;28;20049;-86
2022/01/03 04:26:01;;;;;;;22.30;4.25;;;9.70;99.90;;;;;;5026851;28;20088;-86
2022/01/03 04:28:26;;;;;;;21.05;3.88;;;9.00;99.90;;;;;;5026911;28;20413;-86
2022/01/03 04:30:54;;;;;;;21.23;3.50;;;9.00;99.90;;;;;;5030421;28;20046;-86
2022/01/03 04:33:20;;;;;;;22.70;3.10;;;9.00;99.90;;;;;;5027525;28;20131;-86
2022/01/03 04:35:46;;;;;;;22.42;2.75;;;9.00;99.90;;;;;;5027445;28;20128;-86
2022/01/03 04:38:11;;;;;;;20.83;3.22;;;9.00;99.90;;;;;;5062421;28;20033;-86
2022/01/03 04:40:37;;;;;;;24.50;2.95;;;8.90;99.90;;;;;;5025155;28;20072;-86
2022/01/03 04:43:04;;;;;;;17.05;3.13;;;9.00;99.90;;;;;;5025624;28;20725;-86
2022/01/03 04:45:29;;;;;;;22.02;3.10;;;9.00;99.90;;;;;;5030206;28;20072;-86
2022/01/03 04:47:55;;;;;;;18.42;3.47;;;9.00;99.90;;;;;;5028788;28;20068;-86
2022/01/03 04:50:24;;;;;;;24.10;3.65;;;9.00;99.90;;;;;;5027043;28;20135;-85
2022/01/03 04:52:52;;;;;;;22.20;3.55;;;9.00;99.90;;;;;;5023714;28;20057;-86
2022/01/03 04:55:18;;;;;;;21.77;3.97;;;9.00;99.90;;;;;;5025574;28;20061;-86
2022/01/03 04:57:43;;;;;;;20.02;4.05;;;9.00;99.90;;;;;;5027285;28;20054;-86
2022/01/03 05:00:10;;;;;;;26.17;4.35;;;9.10;99.90;;;;;;5027938;28;20048;-86
2022/01/03 05:02:37;;;;;;;35.42;3.92;;;9.00;99.90;;;;;;5027456;28;20033;-86
2022/01/03 05:05:04;;;;;;;30.73;3.80;;;9.00;99.90;;;;;;5027639;28;20053;-86
2022/01/03 05:07:32;;;;;;;25.73;3.38;;;9.00;99.90;;;;;;5030723;28;20092;-86
2022/01/03 05:09:58;;;;;;;23.27;3.60;;;9.00;99.90;;;;;;5030455;28;20061;-86
2022/01/03 05:12:24;;;;;;;16.60;3.67;;;9.00;99.90;;;;;;5024017;28;20037;-86
2022/01/03 05:14:49;;;;;;;23.67;3.53;;;9.10;99.90;;;;;;5027102;28;20496;-86
2022/01/03 05:17:15;;;;;;;23.52;3.95;;;9.00;99.90;;;;;;5028228;28;20404;-86
2022/01/03 05:19:40;;;;;;;26.30;4.38;;;9.00;99.90;;;;;;5029413;28;20056;-86
2022/01/03 05:22:06;;;;;;;29.58;5.05;;;9.00;99.90;;;;;;5028173;28;20050;-87
2022/01/03 05:24:34;;;;;;;24.00;3.70;;;9.00;99.90;;;;;;5030182;28;20132;-86
2022/01/03 05:27:01;;;;;;;27.27;4.50;;;9.00;99.90;;;;;;5022822;28;20042;-86
2022/01/03 05:29:28;;;;;;;24.58;4.00;;;9.00;99.90;;;;;;5027766;28;20038;-86
2022/01/03 05:31:54;;;;;;;30.52;3.85;;;10.00;99.90;;;;;;5028758;28;20049;-86
2022/01/03 05:34:22;;;;;;;33.00;3.55;;;9.00;99.90;;;;;;5025278;28;20516;-86
2022/01/03 05:36:47;;;;;;;23.02;4.75;;;9.00;99.90;;;;;;5023205;28;20041;-86
2022/01/03 05:39:14;;;;;;;30.45;4.88;;;9.00;99.90;;;;;;5025784;28;20041;-86
2022/01/03 05:41:41;;;;;;;24.48;3.70;;;9.00;99.90;;;;;;5028269;28;20042;-86
2022/01/03 05:44:07;;;;;;;27.38;4.82;;;9.30;99.90;;;;;;5026532;28;20068;-86
2022/01/03 05:46:33;;;;;;;22.85;3.50;;;9.00;99.90;;;;;;5029142;28;20049;-80
2022/01/03 05:49:00;;;;;;;25.52;4.15;;;9.00;99.90;;;;;;5027729;28;20058;-87
2022/01/03 05:51:26;;;;;;;25.35;3.95;;;9.00;99.90;;;;;;5027669;28;20116;-85
2022/01/03 05:53:53;;;;;;;27.08;5.00;;;9.00;99.90;;;;;;5023252;28;20115;-86
2022/01/03 05:56:19;;;;;;;30.85;4.55;;;9.00;99.90;;;;;;5018837;28;20080;-86
2022/01/03 05:58:49;;;;;;;31.90;3.92;;;9.00;99.90;;;;;;5025554;28;20393;-86
2022/01/03 06:01:15;;;;;;;25.52;3.88;;;9.00;99.90;;;;;;5019576;28;20041;-86
2022/01/03 06:03:40;;;;;;;30.95;4.82;;;9.00;99.90;;;;;;5027475;28;20063;-85
2022/01/03 06:08:36;;;;;;;22.55;3.53;;;9.00;99.90;;;;;;5025831;28;20091;-86
2022/01/03 06:11:02;;;;;;;22.77;4.07;;;9.00;99.90;;;;;;5020840;28;20042;-85
2022/01/03 06:13:28;;;;;;;25.67;3.65;;;9.00;99.90;;;;;;5025756;28;20065;-86
2022/01/03 06:15:54;;;;;;;26.65;4.25;;;9.00;99.90;;;;;;5027848;28;20077;-86
2022/01/03 06:18:20;;;;;;;26.40;4.15;;;9.00;99.90;;;;;;5028416;28;20033;-88
2022/01/03 06:20:47;;;;;;;17.63;3.97;;;9.00;99.90;;;;;;5026441;28;20053;-87
2022/01/03 06:23:14;;;;;;;30.30;4.45;;;9.00;99.90;;;;;;5028811;28;20045;-86
2022/01/03 06:25:40;;;;;;;33.42;4.40;;;8.90;99.90;;;;;;5025976;28;20038;-86
2022/01/03 06:28:07;;;;;;;20.63;3.97;;;8.90;99.90;;;;;;5027905;28;20080;-85
2022/01/03 06:30:34;;;;;;;23.88;3.78;;;8.90;99.90;;;;;;5026122;28;20887;-85
2022/01/03 06:32:59;;;;;;;30.02;4.65;;;8.90;99.90;;;;;;5024020;28;20045;-84
2022/01/03 06:35:25;;;;;;;29.40;4.82;;;8.90;99.90;;;;;;5025724;28;20103;-84
2022/01/03 06:37:51;;;;;;;30.05;4.32;;;8.90;99.90;;;;;;5027086;28;20145;-83
2022/01/03 06:40:16;;;;;;;26.45;5.20;;;9.00;99.90;;;;;;5028387;28;20120;-84
2022/01/03 06:42:42;;;;;;;25.40;4.00;;;8.90;99.90;;;;;;5026622;28;20436;-83
2022/01/03 06:45:08;;;;;;;27.35;5.10;;;8.90;99.90;;;;;;5025544;28;20045;-83
2022/01/03 06:47:34;;;;;;;29.75;5.20;;;8.90;99.90;;;;;;5026142;28;20091;-84
2022/01/03 06:50:00;;;;;;;18.73;3.63;;;8.90;99.90;;;;;;5026003;28;20041;-84
2022/01/03 06:52:25;;;;;;;32.10;4.45;;;8.90;99.90;;;;;;5026546;28;20501;-84
2022/01/03 06:54:51;;;;;;;26.15;4.38;;;8.90;99.90;;;;;;5026170;28;20077;-86
2022/01/03 06:57:16;;;;;;;27.63;4.53;;;8.90;99.90;;;;;;5025337;28;20030;-86
2022/01/03 06:59:42;;;;;;;30.35;4.35;;;8.90;99.90;;;;;;5026843;28;20503;-86
2022/01/03 07:02:07;;;;;;;28.77;3.58;;;9.10;99.90;;;;;;5025396;28;20579;-88
2022/01/03 07:04:33;;;;;;;19.40;3.33;;;8.90;99.90;;;;;;5024772;28;20523;-88
2022/01/03 07:06:59;;;;;;;25.95;4.50;;;8.90;99.90;;;;;;5022769;28;20041;-85
2022/01/03 07:09:25;;;;;;;29.85;5.05;;;8.90;99.90;;;;;;5025371;28;20669;-84
2022/01/03 07:11:50;;;;;;;28.13;4.00;;;8.90;99.90;;;;;;5020914;28;20575;-86
2022/01/03 07:19:39;;;;;;;26.05;4.05;;;8.90;99.90;;;;;;5003323;28;20107;-89
2022/01/03 07:22:08;;;;;;;27.05;4.00;;;8.90;99.90;;;;;;5009706;28;20042;-89
2022/01/03 07:24:38;;;;;;;28.52;4.30;;;8.90;99.90;;;;;;5041976;28;20038;-87
2022/01/03 07:27:06;;;;;;;32.80;3.78;;;8.90;99.90;;;;;;5013984;28;20452;-85
2022/01/03 07:29:32;;;;;;;27.08;4.25;;;8.90;99.90;;;;;;5033840;28;20119;-89
2022/01/03 07:31:58;;;;;;;33.35;4.82;;;9.00;99.90;;;;;;5013111;28;20056;-83
2022/01/03 07:34:24;;;;;;;25.08;4.47;;;8.90;99.90;;;;;;5009232;28;20057;-83
2022/01/03 07:36:50;;;;;;;29.98;5.75;;;8.90;99.90;;;;;;5008765;28;20046;-85
2022/01/03 07:39:15;;;;;;;31.80;4.68;;;8.90;99.90;;;;;;5005640;28;20424;-85
2022/01/03 07:41:41;;;;;;;24.40;4.40;;;8.90;99.90;;;;;;5012221;28;20184;-90
2022/01/03 07:44:07;;;;;;;35.63;4.97;;;8.90;99.90;;;;;;5045378;28;20045;-92
2022/01/03 07:46:32;;;;;;;28.13;3.85;;;8.90;99.90;;;;;;5014999;28;20040;-94
2022/01/03 07:48:58;;;;;;;23.48;4.22;;;8.90;99.90;;;;;;5007040;28;20053;-92
2022/01/03 07:51:23;;;;;;;21.27;3.47;;;8.90;99.90;;;;;;5013657;28;20057;-91
2022/01/03 07:53:49;;;;;;;23.95;3.83;;;8.90;99.90;;;;;;5012474;28;20053;-86
2022/01/03 07:56:15;;;;;;;31.45;4.72;;;8.90;99.90;;;;;;5012688;28;20489;-92
2022/01/03 07:58:40;;;;;;;21.17;3.88;;;8.80;99.90;;;;;;5000183;28;20042;-89
2022/01/03 08:01:06;;;;;;;27.88;4.53;;;8.80;99.90;;;;;;5035511;28;20037;-89
2022/01/03 08:03:32;;;;;;;26.83;4.28;;;8.80;99.90;;;;;;5012382;28;20064;-88
2022/01/03 08:05:58;;;;;;;31.20;5.10;;;8.80;99.90;;;;;;5040823;28;20133;-89
2022/01/03 08:08:23;;;;;;;24.35;3.60;;;8.80;99.90;;;;;;5007419;28;20185;-86
2022/01/03 08:10:49;;;;;;;29.63;4.43;;;8.80;99.90;;;;;;5011392;28;20057;-87
2022/01/03 08:13:15;;;;;;;29.17;4.63;;;8.90;99.90;;;;;;5013509;28;20072;-88
2022/01/03 08:15:42;;;;;;;27.73;3.90;;;8.90;99.90;;;;;;5014968;28;20083;-86
2022/01/03 08:18:08;;;;;;;28.50;4.60;;;8.90;99.90;;;;;;5006072;28;21059;-80
2022/01/03 08:20:34;;;;;;;20.75;3.75;;;8.90;99.90;;;;;;5015561;28;20136;-90
2022/01/03 08:22:59;;;;;;;28.02;4.47;;;9.00;99.90;;;;;;5018605;28;20091;-84
2022/01/03 08:25:25;;;;;;;27.27;4.55;;;9.00;99.90;;;;;;5011284;28;20053;-83
2022/01/03 08:27:51;;;;;;;27.08;3.95;;;9.10;99.90;;;;;;5012712;28;20092;-82
2022/01/03 08:30:17;;;;;;;35.38;4.55;;;9.10;99.90;;;;;;5009140;28;20064;-86
2022/01/03 08:32:43;;;;;;;20.35;3.42;;;9.10;99.90;;;;;;5012561;28;20100;-81
2022/01/03 08:35:09;;;;;;;29.52;4.13;;;9.10;99.90;;;;;;5017446;28;20049;-82
2022/01/03 08:37:35;;;;;;;24.58;3.17;;;9.20;99.90;;;;;;5018776;28;20045;-83
2022/01/03 08:40:03;;;;;;;31.42;4.05;;;9.20;99.90;;;;;;5007692;28;20378;-86
2022/01/03 08:42:30;;;;;;;23.08;4.82;;;9.20;99.90;;;;;;5016290;28;20050;-85
2022/01/03 08:44:56;;;;;;;31.73;3.65;;;9.20;99.90;;;;;;5016965;28;20429;-84
2022/01/03 08:47:22;;;;;;;22.80;4.20;;;9.20;99.90;;;;;;5041718;28;20042;-83
2022/01/03 08:49:48;;;;;;;30.60;4.07;;;9.20;99.90;;;;;;5002104;28;20056;-85
2022/01/03 08:52:15;;;;;;;26.40;4.30;;;9.20;99.90;;;;;;5010518;28;20209;-85
2022/01/03 08:54:41;;;;;;;25.70;3.97;;;9.30;99.90;;;;;;5016310;28;20060;-83
2022/01/03 08:57:07;;;;;;;27.75;4.40;;;9.30;99.90;;;;;;5014006;28;20068;-82
2022/01/03 08:59:32;;;;;;;21.55;4.82;;;9.30;99.90;;;;;;5005334;28;20132;-84
2022/01/03 09:01:58;;;;;;;25.48;4.15;;;9.30;99.90;;;;;;5017706;28;20034;-84
2022/01/03 09:04:24;;;;;;;19.90;3.58;;;9.50;99.90;;;;;;5017130;28;20127;-85
2022/01/03 09:06:51;;;;;;;25.70;5.13;;;9.30;99.90;;;;;;5041157;28;20077;-80
2022/01/03 09:09:17;;;;;;;27.08;3.90;;;9.40;99.90;;;;;;5007861;28;20700;-82
2022/01/03 09:11:43;;;;;;;30.35;4.18;;;9.30;99.90;;;;;;5016056;28;20046;-83
2022/01/03 09:14:08;;;;;;;28.45;5.18;;;9.30;99.90;;;;;;5017915;28;20044;-85
2022/01/03 09:16:34;;;;;;;19.50;3.58;;;9.10;99.90;;;;;;5015221;28;20060;-86
2022/01/03 09:19:00;;;;;;;27.70;4.07;;;9.40;99.90;;;;;;5009305;28;20045;-85
2022/01/03 09:21:25;;;;;;;29.58;4.35;;;9.40;99.90;;;;;;5018474;28;20049;-87
2022/01/03 09:24:04;;;;;;;24.70;3.45;;;9.40;99.90;;;;;;5016840;28;20061;-83
2022/01/03 09:29:17;;;;;;;27.65;4.13;;;9.40;99.90;;;;;;5009839;28;21271;-82
2022/01/03 09:31:43;;;;;;;27.13;4.18;;;9.40;99.90;;;;;;5032919;28;20056;-83
2022/01/03 09:34:09;;;;;;;23.40;4.28;;;9.40;99.90;;;;;;5017476;28;20871;-83
2022/01/03 09:36:34;;;;;;;22.25;4.75;;;9.50;99.90;;;;;;5016096;28;20125;-85
2022/01/03 09:39:01;;;;;;;20.30;3.63;;;9.50;99.90;;;;;;5007736;28;20052;-82
2022/01/03 09:41:28;;;;;;;24.58;4.22;;;9.50;99.90;;;;;;5014396;28;20053;-75
2022/01/03 09:43:59;;;;;;;28.58;4.35;;;9.50;99.90;;;;;;5018413;28;20053;-86
2022/01/03 09:46:36;;;;;;;24.10;4.13;;;9.50;99.90;;;;;;5017335;28;20038;-86
2022/01/03 09:49:05;;;;;;;25.98;4.55;;;9.50;99.90;;;;;;5007986;28;20622;-85
2022/01/03 09:51:32;;;;;;;25.17;3.85;;;9.60;99.90;;;;;;5019006;28;20095;-88
2022/01/03 09:54:04;;;;;;;20.00;3.45;;;9.60;99.90;;;;;;5016933;28;20049;-86
2022/01/03 09:56:32;;;;;;;21.52;3.75;;;9.60;99.90;;;;;;5014842;28;20045;-83
2022/01/03 09:59:03;;;;;;;22.42;3.60;;;9.70;99.90;;;;;;5006406;28;20049;-79
2022/01/03 10:01:30;;;;;;;29.55;3.95;;;9.70;99.90;;;;;;5019350;28;20049;-80
2022/01/03 10:03:56;;;;;;;24.50;4.28;;;9.70;99.90;;;;;;5039329;28;20501;-82
2022/01/03 10:06:23;;;;;;;22.70;3.90;;;9.70;99.90;;;;;;5015464;28;20061;-81
2022/01/03 10:08:49;;;;;;;21.92;3.30;;;9.70;99.90;;;;;;5009521;28;20041;-81
2022/01/03 10:11:16;;;;;;;24.77;4.07;;;9.70;99.90;;;;;;5009816;28;20471;-82
2022/01/03 10:13:41;;;;;;;26.63;3.33;;;9.80;99.90;;;;;;5016461;28;20386;-82
2022/01/03 10:16:08;;;;;;;29.90;3.90;;;9.70;99.90;;;;;;5017879;28;20071;-81
2022/01/03 10:18:34;;;;;;;32.17;3.95;;;9.70;99.90;;;;;;5011246;28;20053;-82
2022/01/03 10:21:01;;;;;;;25.67;3.75;;;9.80;99.90;;;;;;5017614;28;20052;-81
2022/01/03 10:23:26;;;;;;;23.45;4.00;;;9.80;99.90;;;;;;5017355;28;20144;-82
2022/01/03 10:25:52;;;;;;;29.45;3.80;;;9.70;99.90;;;;;;5014226;28;20037;-81
2022/01/03 10:28:25;;;;;;;24.77;3.63;;;9.80;99.90;;;;;;5009041;28;20595;-80
2022/01/03 10:30:52;;;;;;;20.50;3.70;;;9.80;99.90;;;;;;5007204;28;20068;-81
2022/01/03 10:33:22;;;;;;;22.63;3.53;;;9.80;99.90;;;;;;5013100;28;20304;-81
2022/01/03 10:35:51;;;;;;;21.35;3.13;;;9.70;99.90;;;;;;5012281;28;20049;-81
2022/01/03 10:38:40;;;;;;;31.08;3.65;;;9.70;99.90;;;;;;5006458;28;20132;-81
2022/01/03 10:41:20;;;;;;;25.38;3.63;;;9.80;99.90;;;;;;5015006;28;20073;-76
2022/01/03 10:43:52;;;;;;;25.15;3.33;;;9.80;99.90;;;;;;5014374;28;20077;-81
2022/01/03 10:46:30;;;;;;;25.55;3.92;;;9.80;99.90;;;;;;5011746;28;20497;-80
2022/01/03 10:49:19;;;;;;;20.17;3.35;;;9.80;99.90;;;;;;5007593;28;20100;-80
2022/01/03 10:51:46;;;;;;;25.23;4.45;;;9.90;99.90;;;;;;5012135;28;20111;-80
2022/01/03 10:54:17;;;;;;;26.38;5.03;;;9.90;99.90;;;;;;5011420;28;20061;-80
2022/01/03 10:56:49;;;;;;;24.70;3.42;;;9.90;99.90;;;;;;5013242;28;20114;-80
2022/01/03 10:59:22;;;;;;;24.17;3.63;;;9.90;99.90;;;;;;4998362;28;20045;-79
2022/01/03 11:01:59;;;;;;;25.92;3.53;;;9.90;99.90;;;;;;5012993;28;20054;-82
2022/01/03 11:04:39;;;;;;;26.40;4.68;;;10.00;99.90;;;;;;5011471;28;20053;-81
2022/01/03 11:13:22;;;;;;;20.13;3.55;;;10.10;99.90;;;;;;5009779;28;20053;-85
2022/01/03 11:15:50;;;;;;;27.77;3.85;;;10.10;99.90;;;;;;5009280;28;20092;-83
2022/01/03 11:18:33;;;;;;;26.95;3.65;;;10.20;99.90;;;;;;5008476;28;20866;-83
2022/01/03 11:21:15;;;;;;;19.20;3.10;;;10.20;99.90;;;;;;5006558;28;20184;-84
2022/01/03 11:23:45;;;;;;;26.10;3.97;;;10.20;99.90;;;;;;5032907;28;20037;-83
2022/01/03 11:26:11;;;;;;;22.70;4.13;;;10.20;99.90;;;;;;5012245;28;20085;-83
2022/01/03 11:28:39;;;;;;;25.40;3.75;;;10.30;99.90;;;;;;5036938;28;20042;-84
2022/01/03 11:31:06;;;;;;;27.52;3.58;;;10.30;99.90;;;;;;5014347;28;20479;-84
2022/01/03 11:33:34;;;;;;;23.35;3.28;;;10.30;99.90;;;;;;5039737;28;20055;-84
2022/01/03 11:36:01;;;;;;;28.02;5.20;;;10.30;99.90;;;;;;5007676;28;20069;-84
2022/01/03 11:38:30;;;;;;;30.30;4.15;;;10.30;99.90;;;;;;4998480;28;20689;-84
2022/01/03 11:40:58;;;;;;;20.92;3.42;;;10.40;99.90;;;;;;5010073;28;20054;-84
2022/01/03 11:43:24;;;;;;;23.73;3.42;;;10.40;99.90;;;;;;5014209;28;20076;-84
2022/01/03 11:45:50;;;;;;;20.42;3.95;;;10.40;99.90;;;;;;5014866;28;20046;-84
2022/01/03 11:48:16;;;;;;;26.38;3.92;;;10.50;99.90;;;;;;5033383;28;20053;-84
2022/01/03 11:50:42;;;;;;;22.73;3.50;;;10.60;99.90;;;;;;5013359;28;20033;-86
2022/01/03 11:53:10;;;;;;;25.50;3.47;;;10.70;99.90;;;;;;5012937;28;20064;-82
2022/01/03 11:55:36;;;;;;;23.83;3.03;;;10.70;99.90;;;;;;5012785;28;20038;-82
2022/01/03 11:58:12;;;;;;;27.33;3.78;;;10.70;99.90;;;;;;5008132;28;20507;-81
2022/01/03 12:03:57;;;;;;;25.42;4.88;;;10.70;99.90;;;;;;5035099;28;20065;-81
2022/01/03 12:06:30;;;;;;;24.13;4.10;;;10.70;99.90;;;;;;5016122;28;20125;-80
2022/01/03 12:09:11;;;;;;;29.75;4.25;;;10.70;99.90;;;;;;5012422;28;20103;-78
2022/01/03 12:11:45;;;;;;;18.20;3.22;;;10.70;99.90;;;;;;5011560;28;20053;-76
2022/01/03 12:14:13;;;;;;;;;;;10.70;99.90;;;;;;5016477;28;20083;-77
2022/01/03 12:16:54;;;;;;;19.63;3.63;;;10.70;99.90;;;;;;5015980;28;21360;-77
2022/01/03 12:19:29;;;;;;;14.93;3.55;;;10.70;99.90;;;;;;5012990;28;20460;-77
2022/01/03 12:22:19;;;;;;;21.73;3.72;;;10.70;99.90;;;;;;5015999;28;20057;-78
2022/01/03 12:25:02;;;;;;;24.73;3.35;;;10.80;99.90;;;;;;5014187;28;20045;-77
2022/01/03 12:27:29;;;;;;;20.15;3.45;;;10.80;99.90;;;;;;5019116;28;20300;-76
2022/01/03 12:29:57;;;;;;;24.63;4.40;;;10.90;99.90;;;;;;5013264;28;20049;-77
2022/01/03 12:32:40;;;;;;;22.98;4.20;;;10.90;99.90;;;;;;5017991;28;20587;-78
2022/01/03 12:35:06;;;;;;;15.15;3.58;;;11.00;99.90;;;;;;5018292;28;20042;-78
2022/01/03 12:37:33;;;;;;;21.52;4.05;;;11.00;99.90;;;;;;5019025;28;20048;-77
2022/01/03 12:40:05;;;;;;;21.42;3.60;;;11.00;99.90;;;;;;5008923;28;20058;-76
2022/01/03 12:42:46;;;;;;;21.27;3.40;;;11.10;99.90;;;;;;5014918;28;20064;-77
2022/01/03 12:45:12;;;;;;;25.48;3.60;;;11.00;99.90;;;;;;5017008;28;20532;-75
2022/01/03 12:47:39;;;;;;;22.13;3.22;;;10.90;99.90;;;;;;5016320;28;20091;-75
2022/01/03 12:50:28;;;;;;;22.58;3.67;;;10.90;99.90;;;;;;5007853;28;20402;-75
2022/01/03 12:52:59;;;;;;;24.88;3.50;;;10.80;99.90;;;;;;5015660;28;20049;-75
2022/01/03 12:55:36;;;;;;;21.67;4.03;;;10.70;99.90;;;;;;5014621;28;20060;-75
2022/01/03 12:58:14;;;;;;;21.17;3.20;;;10.70;99.90;;;;;;5004440;28;20120;-74
2022/01/03 13:00:47;;;;;;;21.33;4.22;;;10.70;99.90;;;;;;5015619;28;20046;-75
2022/01/03 13:03:43;;;;;;;20.98;3.67;;;10.70;99.90;;;;;;5016908;28;20496;-75
2022/01/03 13:06:13;;;;;;;23.13;4.35;;;10.60;99.90;;;;;;5041267;28;20516;-75
2022/01/03 13:08:52;;;;;;;24.35;3.50;;;10.60;99.90;;;;;;5012732;28;20042;-75
2022/01/03 13:11:39;;;;;;;25.48;4.38;;;10.60;99.90;;;;;;5010129;28;20120;-76
2022/01/03 13:14:12;;;;;;;29.20;4.28;;;10.60;99.90;;;;;;5015714;28;20042;-80